Time;durP1;ratioP1;P1;durP2;ratioP2;P2;SDS_P1;SDS_P2;PMS_P1;PMS_P2;Temp;Humidity;BMP_temperature;BMP_pressure;BME280_temperature;BME280_humidity;BME280_pressure;Samples;Min_cycle;Max_cycle;Signal;HPM_P1;HPM_P2
2023/04/20 00:01:39;;;;;;;6.47;1.90;;;8.40;99.90;;;;;;5024803;28;20652;-70
2023/04/20 00:04:05;;;;;;;3.80;1.63;;;8.40;99.90;;;;;;5006423;28;20260;-70
2023/04/20 00:06:32;;;;;;;3.97;1.80;;;8.40;99.90;;;;;;5029009;28;20217;-70
2023/04/20 00:08:59;;;;;;;4.23;1.80;;;8.40;99.90;;;;;;5010628;28;20539;-70
2023/04/20 00:11:25;;;;;;;3.53;1.37;;;8.40;99.90;;;;;;5029407;28;20194;-70
2023/04/20 00:13:51;;;;;;;3.70;1.50;;;8.30;99.90;;;;;;5024917;28;20181;-70
2023/04/20 00:16:17;;;;;;;5.20;1.80;;;8.90;99.90;;;;;;5029526;28;20182;-70
2023/04/20 00:18:45;;;;;;;9.23;1.77;;;8.20;99.90;;;;;;5025990;28;20293;-69
2023/04/20 00:21:11;;;;;;;6.57;2.13;;;8.20;99.90;;;;;;5028388;28;20645;-69
2023/04/20 00:23:37;;;;;;;4.67;1.47;;;8.20;99.90;;;;;;5026948;28;20212;-70
2023/04/20 00:26:02;;;;;;;5.43;2.03;;;8.20;99.90;;;;;;5021764;28;20182;-69
2023/04/20 00:28:28;;;;;;;4.57;1.93;;;8.40;99.90;;;;;;5027935;28;20694;-70
2023/04/20 00:30:54;;;;;;;6.80;2.07;;;8.40;99.90;;;;;;5025727;28;20499;-70
2023/04/20 00:33:20;;;;;;;5.70;1.80;;;8.10;99.90;;;;;;5010643;28;20264;-69
2023/04/20 00:35:45;;;;;;;6.77;2.30;;;8.00;99.90;;;;;;5025127;28;20182;-69
2023/04/20 00:38:11;;;;;;;7.33;1.83;;;8.10;99.90;;;;;;5011326;28;20197;-69
2023/04/20 00:40:37;;;;;;;8.27;1.90;;;8.00;99.90;;;;;;5024739;28;20175;-69
2023/04/20 00:43:12;;;;;;;7.40;1.90;;;8.00;99.90;;;;;;5029029;28;20660;-70
2023/04/20 00:45:38;;;;;;;12.90;2.33;;;7.90;99.90;;;;;;5024224;28;20264;-70
2023/04/20 00:48:05;;;;;;;5.27;1.70;;;7.90;99.90;;;;;;5028882;28;20174;-69
2023/04/20 00:50:31;;;;;;;3.27;1.70;;;7.90;99.90;;;;;;5025099;28;20201;-70
2023/04/20 00:52:57;;;;;;;3.93;1.57;;;7.80;99.90;;;;;;5027932;28;20178;-70
2023/04/20 00:55:23;;;;;;;3.83;1.43;;;7.90;99.90;;;;;;5025999;28;20296;-70
2023/04/20 00:57:49;;;;;;;3.83;1.60;;;;;;;;;;5026746;28;20196;-69
2023/04/20 01:00:15;;;;;;;6.57;1.63;;;7.80;99.90;;;;;;5026999;28;20635;-70
2023/04/20 01:02:41;;;;;;;6.30;1.70;;;7.80;99.90;;;;;;5025517;28;20182;-70
2023/04/20 01:05:07;;;;;;;6.70;1.80;;;7.80;99.90;;;;;;5009872;28;20736;-70
2023/04/20 01:07:33;;;;;;;8.10;2.10;;;7.60;99.90;;;;;;5024492;28;20261;-70
2023/04/20 01:09:59;;;;;;;5.93;1.70;;;7.60;99.90;;;;;;5028357;28;20601;-70
2023/04/20 01:12:24;;;;;;;6.80;1.90;;;7.60;99.90;;;;;;5023962;28;20170;-69
2023/04/20 01:14:50;;;;;;;5.43;1.70;;;7.50;99.90;;;;;;5027717;28;20170;-70
2023/04/20 01:17:16;;;;;;;4.40;1.90;;;7.50;99.90;;;;;;5024304;28;20184;-70
2023/04/20 01:19:43;;;;;;;5.27;1.83;;;7.50;99.90;;;;;;5027599;28;20169;-70
2023/04/20 01:22:15;;;;;;;5.93;1.63;;;7.40;99.90;;;;;;5025258;28;20207;-70
2023/04/20 01:24:40;;;;;;;4.07;1.73;;;7.50;99.90;;;;;;5027240;28;20205;-70
2023/04/20 01:27:06;;;;;;;5.87;1.77;;;7.50;99.90;;;;;;5025563;28;20707;-70
2023/04/20 01:29:32;;;;;;;10.30;1.83;;;7.40;99.90;;;;;;5025863;28;20178;-70
2023/04/20 01:31:58;;;;;;;6.33;1.83;;;7.30;99.90;;;;;;5026768;28;20727;-70
2023/04/20 01:34:24;;;;;;;4.30;1.60;;;7.30;99.90;;;;;;5024467;28;20232;-69
2023/04/20 01:36:49;;;;;;;3.83;1.70;;;7.20;99.90;;;;;;5027387;28;20185;-69
2023/04/20 01:39:16;;;;;;;14.47;2.10;;;7.20;99.90;;;;;;5023665;28;20179;-69
2023/04/20 01:41:42;;;;;;;9.17;1.70;;;7.30;99.90;;;;;;5027743;28;20672;-69
2023/04/20 01:44:07;;;;;;;11.20;2.07;;;7.30;99.90;;;;;;5022961;28;20232;-69
2023/04/20 01:46:37;;;;;;;6.07;1.83;;;7.30;99.90;;;;;;5027794;28;20200;-69
2023/04/20 01:49:02;;;;;;;7.47;2.17;;;7.20;99.90;;;;;;5023917;28;20204;-69
2023/04/20 01:51:28;;;;;;;5.73;1.90;;;7.30;99.90;;;;;;5026832;28;20530;-69
2023/04/20 01:53:54;;;;;;;10.97;1.90;;;;;;;;;;5007598;28;20655;-69
2023/04/20 01:56:20;;;;;;;6.30;1.87;;;;;;;;;;5025421;28;20191;-69
2023/04/20 01:58:45;;;;;;;6.70;2.10;;;7.20;99.90;;;;;;5026265;28;20644;-69
2023/04/20 02:01:11;;;;;;;5.00;1.70;;;7.10;99.90;;;;;;5006205;28;20262;-69
2023/04/20 02:03:37;;;;;;;10.00;2.40;;;7.90;99.90;;;;;;5026711;28;20217;-69
2023/04/20 02:06:02;;;;;;;8.93;2.20;;;7.10;99.90;;;;;;5023045;28;20644;-69
2023/04/20 02:08:28;;;;;;;6.53;2.03;;;7.00;99.90;;;;;;5027345;28;20228;-71
2023/04/20 02:10:53;;;;;;;5.53;2.27;;;7.10;99.90;;;;;;5022723;28;20565;-69
2023/04/20 02:13:20;;;;;;;5.03;1.90;;;7.00;99.90;;;;;;5026978;28;20185;-69
2023/04/20 02:15:45;;;;;;;8.83;2.40;;;6.90;99.90;;;;;;5024016;28;20256;-69
2023/04/20 02:18:11;;;;;;;6.80;2.27;;;7.00;99.90;;;;;;5025682;28;20653;-69
2023/04/20 02:20:36;;;;;;;8.87;2.50;;;6.90;99.90;;;;;;5025307;28;20193;-69
2023/04/20 02:23:02;;;;;;;10.17;2.23;;;;;;;;;;5024224;28;20574;-71
2023/04/20 02:25:28;;;;;;;7.83;2.57;;;6.80;99.90;;;;;;5026250;28;20359;-71
2023/04/20 02:27:54;;;;;;;9.97;2.80;;;6.80;99.90;;;;;;5022043;28;20193;-69
2023/04/20 02:30:20;;;;;;;10.37;2.53;;;6.60;99.90;;;;;;5026830;28;20178;-71
2023/04/20 02:32:46;;;;;;;8.67;2.70;;;6.70;99.90;;;;;;5022388;28;20189;-71
2023/04/20 02:35:11;;;;;;;6.60;2.60;;;6.70;99.90;;;;;;5026751;28;20316;-72
2023/04/20 02:37:37;;;;;;;10.57;3.20;;;6.70;99.90;;;;;;5023016;28;20649;-71
2023/04/20 02:40:03;;;;;;;8.40;2.43;;;6.70;99.90;;;;;;5026095;28;20177;-71
2023/04/20 02:42:29;;;;;;;11.83;3.20;;;6.60;99.90;;;;;;5024173;28;20182;-71
2023/04/20 02:44:55;;;;;;;10.13;2.73;;;6.70;99.90;;;;;;5024505;28;20624;-69
2023/04/20 02:47:20;;;;;;;8.03;3.13;;;6.60;99.90;;;;;;5025006;28;20178;-69
2023/04/20 02:49:46;;;;;;;6.70;3.10;;;6.60;99.90;;;;;;5023383;28;20567;-70
2023/04/20 02:52:11;;;;;;;10.23;3.37;;;6.50;99.90;;;;;;5025653;28;20608;-70
2023/04/20 02:54:37;;;;;;;9.60;3.10;;;6.50;99.90;;;;;;5022768;28;20189;-70
2023/04/20 02:57:03;;;;;;;11.47;3.10;;;6.30;99.90;;;;;;5026585;28;20547;-70
2023/04/20 02:59:28;;;;;;;8.83;3.53;;;6.40;99.90;;;;;;5021831;28;20232;-70
2023/04/20 03:01:54;;;;;;;8.90;3.53;;;6.30;99.90;;;;;;5026451;28;20208;-69
2023/04/20 03:04:20;;;;;;;11.57;3.30;;;6.30;99.90;;;;;;5022537;28;20233;-69
2023/04/20 03:06:47;;;;;;;6.77;3.20;;;;;;;;;;5025236;28;20229;-69
2023/04/20 03:09:13;;;;;;;14.37;3.80;;;6.30;99.90;;;;;;5023795;28;20198;-70
2023/04/20 03:11:39;;;;;;;11.87;3.80;;;6.30;99.90;;;;;;5024305;28;20656;-70
2023/04/20 03:14:05;;;;;;;14.27;4.10;;;6.30;99.90;;;;;;5024834;28;20246;-70
2023/04/20 03:16:30;;;;;;;14.17;3.80;;;6.30;99.90;;;;;;5023095;28;20169;-70
2023/04/20 03:18:56;;;;;;;11.03;3.53;;;6.10;99.90;;;;;;5025313;28;20542;-70
2023/04/20 03:21:22;;;;;;;9.20;3.73;;;6.20;99.90;;;;;;5022337;28;20236;-71
2023/04/20 03:23:48;;;;;;;16.00;4.20;;;6.20;99.90;;;;;;5008473;28;20198;-70
2023/04/20 03:26:13;;;;;;;12.70;4.03;;;6.20;99.90;;;;;;5022681;28;20201;-70
2023/04/20 03:28:41;;;;;;;11.67;4.43;;;6.20;99.90;;;;;;5026439;28;20186;-70
2023/04/20 03:31:07;;;;;;;10.77;4.20;;;6.20;99.90;;;;;;5022071;28;20178;-70
2023/04/20 03:33:33;;;;;;;12.67;4.23;;;;;;;;;;5025416;28;20269;-69
2023/04/20 03:35:58;;;;;;;14.93;4.10;;;6.10;99.90;;;;;;5023257;28;20644;-69
2023/04/20 03:38:24;;;;;;;17.53;4.50;;;6.20;99.90;;;;;;5025142;28;20188;-69
2023/04/20 03:40:50;;;;;;;17.73;4.60;;;6.10;99.90;;;;;;5028737;28;20177;-70
2023/04/20 03:43:15;;;;;;;17.20;4.53;;;6.00;99.90;;;;;;5026761;28;20177;-70
2023/04/20 03:45:41;;;;;;;15.30;4.00;;;5.80;99.90;;;;;;5029100;28;20257;-70
2023/04/20 03:48:06;;;;;;;12.50;4.37;;;6.00;99.90;;;;;;5028737;28;20224;-70
2023/04/20 03:50:32;;;;;;;11.40;4.40;;;6.00;99.90;;;;;;5029811;28;20185;-70
2023/04/20 03:52:57;;;;;;;13.23;4.73;;;6.00;99.90;;;;;;5025167;28;20210;-69
2023/04/20 03:55:23;;;;;;;15.13;5.47;;;6.00;99.90;;;;;;5029832;28;20181;-70
2023/04/20 03:57:49;;;;;;;8.33;4.40;;;5.80;99.90;;;;;;5026111;28;20181;-70
2023/04/20 04:00:15;;;;;;;13.10;4.87;;;5.90;99.90;;;;;;5028614;28;20664;-70
2023/04/20 04:02:40;;;;;;;16.80;4.53;;;6.00;99.90;;;;;;5027213;28;20213;-70
2023/04/20 04:05:06;;;;;;;14.30;4.50;;;5.90;99.90;;;;;;5027367;28;20696;-70
2023/04/20 04:07:32;;;;;;;14.80;5.67;;;5.90;99.90;;;;;;5028191;28;20222;-70
2023/04/20 04:09:57;;;;;;;14.97;5.00;;;5.90;99.90;;;;;;5026125;28;20174;-70
2023/04/20 04:12:23;;;;;;;14.33;5.33;;;5.80;99.90;;;;;;5028872;28;20571;-70
2023/04/20 04:14:49;;;;;;;14.57;5.40;;;5.80;99.90;;;;;;5025403;28;20179;-70
2023/04/20 04:17:14;;;;;;;15.60;5.17;;;5.70;99.90;;;;;;5029346;28;20196;-70
2023/04/20 04:19:40;;;;;;;13.20;5.17;;;5.60;99.90;;;;;;5024793;28;20587;-70
2023/04/20 04:22:06;;;;;;;17.80;5.40;;;5.60;99.90;;;;;;5003594;28;20557;-70
2023/04/20 04:24:32;;;;;;;15.60;5.17;;;5.60;99.90;;;;;;5026009;28;20214;-70
2023/04/20 04:26:58;;;;;;;14.17;5.00;;;5.60;99.90;;;;;;5025422;28;20172;-70
2023/04/20 04:29:27;;;;;;;14.57;4.60;;;5.50;99.90;;;;;;5026844;28;20221;-70
2023/04/20 04:31:53;;;;;;;12.43;5.20;;;5.30;99.90;;;;;;5027096;28;20178;-70
2023/04/20 04:34:19;;;;;;;12.47;5.03;;;5.60;99.90;;;;;;5027657;28;20709;-70
2023/04/20 04:36:44;;;;;;;12.13;5.03;;;5.50;99.90;;;;;;5026147;28;20619;-70
2023/04/20 04:39:11;;;;;;;15.50;5.20;;;;;;;;;;5028051;28;20695;-70
2023/04/20 04:41:37;;;;;;;16.83;5.60;;;5.50;99.90;;;;;;5025174;28;20182;-70
2023/04/20 04:44:04;;;;;;;14.13;5.47;;;5.60;99.90;;;;;;5028785;28;20259;-70
2023/04/20 04:46:31;;;;;;;14.50;5.40;;;5.50;99.90;;;;;;5024321;28;20202;-70
2023/04/20 04:48:59;;;;;;;15.23;5.57;;;5.60;99.90;;;;;;5029047;28;20189;-70
2023/04/20 04:51:25;;;;;;;19.50;6.03;;;5.40;99.90;;;;;;5022936;28;20551;-70
2023/04/20 04:53:51;;;;;;;13.00;5.43;;;5.50;99.90;;;;;;5028744;28;20178;-69
2023/04/20 04:56:17;;;;;;;15.33;5.63;;;5.50;99.90;;;;;;5025183;28;20537;-70
2023/04/20 04:58:44;;;;;;;16.50;5.87;;;5.50;99.90;;;;;;5027939;28;20189;-70
2023/04/20 05:01:10;;;;;;;19.77;5.77;;;5.60;99.90;;;;;;5026057;28;20192;-71
2023/04/20 05:03:36;;;;;;;15.90;5.33;;;5.40;99.90;;;;;;5008475;28;20186;-71
2023/04/20 05:06:01;;;;;;;17.43;5.73;;;5.40;99.90;;;;;;5027426;28;20307;-71
2023/04/20 05:08:27;;;;;;;24.00;6.63;;;5.30;99.90;;;;;;5024919;28;20328;-71
2023/04/20 05:10:53;;;;;;;11.77;5.73;;;5.20;99.90;;;;;;5027676;28;20705;-69
2023/04/20 05:13:18;;;;;;;10.03;5.67;;;5.40;99.90;;;;;;5024335;28;20190;-69
2023/04/20 05:15:44;;;;;;;17.13;6.07;;;5.20;99.90;;;;;;5028230;28;20184;-69
2023/04/20 05:18:09;;;;;;;19.93;6.30;;;5.20;99.90;;;;;;5023601;28;20550;-69
2023/04/20 05:20:35;;;;;;;15.33;6.20;;;5.50;99.90;;;;;;5028179;28;20228;-69
2023/04/20 05:23:01;;;;;;;16.50;6.33;;;;;;;;;;5007212;28;20619;-69
2023/04/20 05:25:27;;;;;;;18.57;6.37;;;5.40;99.90;;;;;;5026989;28;20218;-70
2023/04/20 05:27:52;;;;;;;21.00;6.73;;;5.50;99.90;;;;;;5029534;28;20197;-70
2023/04/20 05:30:18;;;;;;;17.00;6.93;;;5.40;99.90;;;;;;5025587;28;20269;-70
2023/04/20 05:32:44;;;;;;;23.40;6.87;;;;;;;;;;5027115;28;20182;-70
2023/04/20 05:35:09;;;;;;;21.17;6.93;;;5.50;99.90;;;;;;5024248;28;20189;-69
2023/04/20 05:37:35;;;;;;;16.33;6.47;;;5.70;99.90;;;;;;5027627;28;20182;-70
2023/04/20 05:40:01;;;;;;;15.20;6.73;;;5.90;99.90;;;;;;5023641;28;20178;-69
2023/04/20 05:42:26;;;;;;;18.00;6.30;;;5.60;99.90;;;;;;5027607;28;20477;-70
2023/04/20 05:44:52;;;;;;;17.23;6.80;;;5.70;99.90;;;;;;5023224;28;20217;-70
2023/04/20 05:47:18;;;;;;;15.03;7.13;;;;;;;;;;5027487;28;20649;-70
2023/04/20 05:49:44;;;;;;;16.73;7.53;;;5.70;99.90;;;;;;5024575;28;20186;-70
2023/04/20 05:52:10;;;;;;;24.47;7.50;;;5.70;99.90;;;;;;5026431;28;20269;-70
2023/04/20 05:54:36;;;;;;;19.03;7.77;;;5.80;99.90;;;;;;5025783;28;20224;-70
2023/04/20 05:57:01;;;;;;;17.57;6.73;;;5.70;99.90;;;;;;5024792;28;20587;-70
2023/04/20 05:59:27;;;;;;;24.00;7.57;;;5.80;99.90;;;;;;5026406;28;20174;-70
2023/04/20 06:01:53;;;;;;;24.23;7.67;;;5.90;99.90;;;;;;5023413;28;20189;-70
2023/04/20 06:04:18;;;;;;;21.00;8.03;;;5.90;99.90;;;;;;5027170;28;20198;-70
2023/04/20 06:06:44;;;;;;;24.70;7.40;;;6.00;99.90;;;;;;5022838;28;20304;-70
2023/04/20 06:09:10;;;;;;;17.53;6.73;;;;;;;;;;5027177;28;20170;-70
2023/04/20 06:11:37;;;;;;;18.47;7.60;;;6.00;99.90;;;;;;5022562;28;20226;-69
2023/04/20 06:14:03;;;;;;;16.23;7.40;;;6.10;99.90;;;;;;5026918;28;20351;-70
2023/04/20 06:16:28;;;;;;;17.40;7.13;;;6.10;99.90;;;;;;5024013;28;20535;-70
2023/04/20 06:18:54;;;;;;;19.83;7.43;;;6.10;99.90;;;;;;5025615;28;20185;-70
2023/04/20 06:21:19;;;;;;;20.37;7.87;;;6.40;99.90;;;;;;5025539;28;20216;-70
2023/04/20 06:23:45;;;;;;;18.37;7.53;;;6.40;99.90;;;;;;5024034;28;20189;-70
2023/04/20 06:26:11;;;;;;;22.97;7.33;;;6.60;99.90;;;;;;5023983;28;20247;-70
2023/04/20 06:28:36;;;;;;;20.43;7.40;;;6.50;99.90;;;;;;5028639;28;20261;-70
2023/04/20 06:31:05;;;;;;;21.63;7.57;;;6.60;99.90;;;;;;5026750;28;20185;-70
2023/04/20 06:33:31;;;;;;;16.87;6.63;;;6.70;99.90;;;;;;5023501;28;20237;-70
2023/04/20 06:35:57;;;;;;;25.73;7.83;;;6.90;99.90;;;;;;5022316;28;20640;-70
2023/04/20 06:38:24;;;;;;;29.00;7.37;;;6.90;99.90;;;;;;5023096;28;20265;-70
2023/04/20 06:40:49;;;;;;;18.83;6.63;;;7.00;99.90;;;;;;5026052;28;20212;-70
2023/04/20 06:43:15;;;;;;;19.37;7.47;;;7.20;99.90;;;;;;5023727;28;20221;-70
2023/04/20 06:45:41;;;;;;;25.70;7.90;;;7.10;99.90;;;;;;5024597;28;20213;-70
2023/04/20 06:48:07;;;;;;;16.07;6.70;;;7.20;99.90;;;;;;5025352;28;20664;-70
2023/04/20 06:50:33;;;;;;;21.97;7.67;;;7.20;99.90;;;;;;5023270;28;20231;-71
2023/04/20 06:52:58;;;;;;;19.60;6.93;;;7.50;99.90;;;;;;5025601;28;20177;-71
2023/04/20 06:55:24;;;;;;;19.47;6.90;;;7.40;99.90;;;;;;5022571;28;20233;-70
2023/04/20 06:57:49;;;;;;;20.70;6.57;;;7.70;99.90;;;;;;5026275;28;20177;-71
2023/04/20 07:00:16;;;;;;;22.20;7.20;;;7.70;99.90;;;;;;5021873;28;20220;-70
2023/04/20 07:02:42;;;;;;;19.77;6.90;;;7.80;99.90;;;;;;5026396;28;20711;-71
2023/04/20 07:05:08;;;;;;;21.73;6.97;;;7.80;99.90;;;;;;5022541;28;20222;-71
2023/04/20 07:07:33;;;;;;;20.43;8.07;;;7.80;99.90;;;;;;5025073;28;20374;-71
2023/04/20 07:09:59;;;;;;;17.47;6.83;;;7.70;99.90;;;;;;5024103;28;20290;-71
2023/04/20 07:12:24;;;;;;;17.13;6.67;;;8.00;99.90;;;;;;5023822;28;20174;-70
2023/04/20 07:14:50;;;;;;;18.40;6.70;;;;;;;;;;5024954;28;20542;-70
2023/04/20 07:17:16;;;;;;;17.47;6.37;;;8.10;99.90;;;;;;5022334;28;20678;-69
2023/04/20 07:19:42;;;;;;;23.20;7.03;;;;;;;;;;5025707;28;20180;-70
2023/04/20 07:22:08;;;;;;;15.93;6.53;;;8.40;99.90;;;;;;5024726;28;20196;-70
2023/04/20 07:24:33;;;;;;;20.47;6.53;;;8.40;99.90;;;;;;5026085;28;20728;-70
2023/04/20 07:26:59;;;;;;;20.80;6.53;;;8.50;99.90;;;;;;5021632;28;20178;-69
2023/04/20 07:29:25;;;;;;;18.53;6.87;;;8.60;99.90;;;;;;5025810;28;20189;-70
2023/04/20 07:31:50;;;;;;;19.00;6.70;;;8.60;99.90;;;;;;5023332;28;20510;-70
2023/04/20 07:34:16;;;;;;;19.23;6.33;;;8.80;99.90;;;;;;5024426;28;20182;-70
2023/04/20 07:36:42;;;;;;;21.10;6.17;;;8.70;99.90;;;;;;5024269;28;20253;-70
2023/04/20 07:39:07;;;;;;;15.97;6.43;;;8.80;99.90;;;;;;5022981;28;20177;-70
2023/04/20 07:41:33;;;;;;;21.13;6.40;;;8.90;99.90;;;;;;5024868;28;20181;-70
2023/04/20 07:43:59;;;;;;;18.37;6.43;;;9.00;99.90;;;;;;5022123;28;20206;-70
2023/04/20 07:46:25;;;;;;;18.03;6.50;;;;;;;;;;5025812;28;20197;-70
2023/04/20 07:48:51;;;;;;;14.67;6.00;;;9.10;99.90;;;;;;5024354;28;20266;-70
2023/04/20 07:51:16;;;;;;;17.53;6.23;;;9.50;99.90;;;;;;5025581;28;20209;-70
2023/04/20 07:53:43;;;;;;;20.27;6.47;;;9.30;99.90;;;;;;5021532;28;20209;-70
2023/04/20 07:56:08;;;;;;;19.50;5.80;;;9.70;99.90;;;;;;5025125;28;20257;-70
2023/04/20 07:58:37;;;;;;;13.83;5.97;;;9.80;99.90;;;;;;5022819;28;20747;-70
2023/04/20 08:01:03;;;;;;;15.77;5.73;;;9.70;99.90;;;;;;5024708;28;20240;-69
2023/04/20 08:03:28;;;;;;;16.77;6.60;;;9.80;99.90;;;;;;5023285;28;20222;-69
2023/04/20 08:05:54;;;;;;;15.37;5.90;;;;;;;;;;5023160;28;20233;-69
2023/04/20 08:08:20;;;;;;;15.53;6.20;;;10.60;99.90;;;;;;5024438;28;20170;-70
2023/04/20 08:10:45;;;;;;;20.63;6.53;;;10.30;99.90;;;;;;5021927;28;20183;-69
2023/04/20 08:13:11;;;;;;;14.33;5.43;;;10.60;99.90;;;;;;5024987;28;20640;-69
2023/04/20 08:15:37;;;;;;;17.77;5.80;;;11.20;99.90;;;;;;5021456;28;20175;-69
2023/04/20 08:18:02;;;;;;;17.00;5.63;;;12.40;99.90;;;;;;5025567;28;20583;-69
2023/04/20 08:20:28;;;;;;;11.50;5.40;;;13.20;99.90;;;;;;5020777;28;20583;-70
2023/04/20 08:22:54;;;;;;;12.88;5.50;;;14.20;99.90;;;;;;5027212;28;20177;-70
2023/04/20 08:25:19;;;;;;;15.45;4.88;;;14.60;99.90;;;;;;5024293;28;20218;-70
2023/04/20 08:27:45;;;;;;;16.92;5.10;;;15.30;99.90;;;;;;5027635;28;20174;-70
2023/04/20 08:30:11;;;;;;;13.65;4.93;;;15.70;99.90;;;;;;5027133;28;20677;-71
2023/04/20 08:32:37;;;;;;;15.95;5.43;;;16.60;99.90;;;;;;5025945;28;20174;-71
2023/04/20 08:35:03;;;;;;;11.90;4.70;;;16.50;99.90;;;;;;5027833;28;20272;-71
2023/04/20 08:37:29;;;;;;;16.92;5.07;;;17.10;99.90;;;;;;5024836;28;20224;-71
2023/04/20 08:39:55;;;;;;;15.90;4.85;;;16.80;99.90;;;;;;5028229;28;20189;-71
2023/04/20 08:42:20;;;;;;;12.88;4.53;;;16.90;99.90;;;;;;5023669;28;20175;-71
2023/04/20 08:44:46;;;;;;;14.95;4.75;;;17.50;99.90;;;;;;5028626;28;20216;-72
2023/04/20 08:47:13;;;;;;;17.50;5.07;;;17.80;99.90;;;;;;5006636;28;20207;-72
2023/04/20 08:49:39;;;;;;;16.95;5.60;;;17.40;99.90;;;;;;5028350;28;20223;-72
2023/04/20 08:52:09;;;;;;;16.27;4.88;;;17.70;99.90;;;;;;5025021;28;20193;-72
2023/04/20 08:54:36;;;;;;;17.00;4.55;;;17.30;99.90;;;;;;5027346;28;20229;-72
2023/04/20 08:57:02;;;;;;;11.35;4.65;;;17.10;99.90;;;;;;5025872;28;20633;-71
2023/04/20 08:59:29;;;;;;;10.82;4.47;;;17.40;99.90;;;;;;5026289;28;20193;-72
2023/04/20 09:01:55;;;;;;;14.38;4.80;;;17.40;99.90;;;;;;5027056;28;20225;-71
2023/04/20 09:04:22;;;;;;;12.65;4.65;;;17.30;99.90;;;;;;5025061;28;20761;-72
2023/04/20 09:06:51;;;;;;;10.10;4.15;;;17.30;99.90;;;;;;5027088;28;20264;-70
2023/04/20 09:09:21;;;;;;;15.75;4.10;;;17.70;99.90;;;;;;5024711;28;20534;-70
2023/04/20 09:11:58;;;;;;;12.85;4.43;;;17.70;99.90;;;;;;5027703;28;20170;-70
2023/04/20 09:14:23;;;;;;;12.35;4.72;;;17.70;99.90;;;;;;5025066;28;20212;-70
2023/04/20 09:16:56;;;;;;;17.48;4.78;;;18.40;99.90;;;;;;5027425;28;20589;-73
2023/04/20 09:19:23;;;;;;;19.60;5.25;;;18.70;87.00;;;;;;5027941;28;20265;-71
2023/04/20 09:21:49;;;;;;;16.35;4.70;;;18.50;89.00;;;;;;5027329;28;20524;-70
2023/04/20 09:24:16;;;;;;;15.38;4.65;;;18.60;75.10;;;;;;5026849;28;20226;-70
2023/04/20 09:26:42;;;;;;;18.17;4.60;;;;;;;;;;5028215;28;20269;-72
2023/04/20 09:29:18;;;;;;;15.52;4.57;;;17.80;99.90;;;;;;5023207;28;20269;-71
2023/04/20 09:31:43;;;;;;;77.20;9.60;;;17.20;99.90;;;;;;5028003;28;20347;-72
2023/04/20 09:34:09;;;;;;;191.80;16.00;;;17.20;99.40;;;;;;5022904;28;20265;-71
2023/04/20 09:36:42;;;;;;;232.38;18.98;;;17.30;98.10;;;;;;5027709;28;20205;-71
2023/04/20 09:39:10;;;;;;;173.98;15.02;;;;;;;;;;5023098;28;20170;-72
2023/04/20 09:41:37;;;;;;;28.65;5.97;;;18.00;97.70;;;;;;5022793;28;20186;-69
2023/04/20 09:44:03;;;;;;;34.58;5.97;;;18.60;71.70;;;;;;5023684;28;20206;-71
2023/04/20 09:46:34;;;;;;;51.17;7.82;;;18.20;76.30;;;;;;5026812;28;20186;-71
2023/04/20 09:49:02;;;;;;;54.30;7.50;;;18.50;64.20;;;;;;5024736;28;20182;-71
2023/04/20 09:51:28;;;;;;;31.52;4.82;;;18.20;41.00;;;;;;5026435;28;20182;-70
2023/04/20 09:53:55;;;;;;;19.52;4.25;;;;;;;;;;5025328;28;20184;-70
2023/04/20 09:56:21;;;;;;;14.80;4.07;;;19.00;13.80;;;;;;5025159;28;20716;-71
2023/04/20 09:58:48;;;;;;;12.65;3.95;;;19.00;9.90;;;;;;5026182;28;20260;-70
2023/04/20 10:01:14;;;;;;;10.15;4.05;;;18.30;1.00;;;;;;5023845;28;20209;-70
2023/04/20 10:03:43;;;;;;;12.55;3.60;;;19.20;1.00;;;;;;5026210;28;20205;-71
2023/04/20 10:06:29;;;;;;;8.88;3.85;;;19.00;1.00;;;;;;5022913;28;20249;-71
2023/04/20 10:08:55;;;;;;;10.95;4.22;;;18.80;1.00;;;;;;5024881;28;20192;-71
2023/04/20 10:11:35;;;;;;;12.65;3.95;;;18.70;1.00;;;;;;5024582;28;20632;-71
2023/04/20 10:14:23;;;;;;;12.52;4.10;;;18.20;1.00;;;;;;5024295;28;20669;-71
2023/04/20 10:17:05;;;;;;;9.52;3.63;;;18.50;1.00;;;;;;5022984;28;20178;-71
2023/04/20 10:19:44;;;;;;;11.73;3.97;;;19.90;1.00;;;;;;5026455;28;20705;-71
2023/04/20 10:22:12;;;;;;;8.88;3.60;;;20.70;1.00;;;;;;5025906;28;20193;-71
2023/04/20 10:24:39;;;;;;;10.90;4.20;;;21.30;1.00;;;;;;5022821;28;20224;-71
2023/04/20 10:27:20;;;;;;;12.35;3.80;;;21.10;1.00;;;;;;5028952;28;20174;-71
2023/04/20 10:29:46;;;;;;;22.02;4.18;;;20.90;1.00;;;;;;5024470;28;20281;-71
2023/04/20 10:32:27;;;;;;;16.55;3.80;;;20.60;1.00;;;;;;5025815;28;20712;-71
2023/04/20 10:35:08;;;;;;;9.40;3.70;;;21.70;1.00;;;;;;5025044;28;20182;-72
2023/04/20 10:37:35;;;;;;;7.10;3.30;;;21.60;1.00;;;;;;5023127;28;20269;-71
2023/04/20 10:40:03;;;;;;;10.88;3.67;;;21.80;1.00;;;;;;5025399;28;20210;-72
2023/04/20 10:42:39;;;;;;;19.73;4.10;;;21.60;1.00;;;;;;5023707;28;20267;-71
2023/04/20 10:45:05;;;;;;;7.82;3.33;;;22.30;1.00;;;;;;5026339;28;20320;-71
2023/04/20 10:47:33;;;;;;;10.38;4.25;;;21.80;1.00;;;;;;5023144;28;20189;-71
2023/04/20 10:50:10;;;;;;;9.10;3.47;;;22.00;1.00;;;;;;5025210;28;20189;-72
2023/04/20 10:52:38;;;;;;;12.70;3.50;;;22.30;1.00;;;;;;5022945;28;20204;-71
2023/04/20 10:55:05;;;;;;;8.05;3.70;;;22.50;1.00;;;;;;5025510;28;20209;-71
2023/04/20 10:57:31;;;;;;;12.18;3.72;;;21.70;1.00;;;;;;5023496;28;20683;-71
2023/04/20 10:59:57;;;;;;;15.40;5.00;;;21.50;1.00;;;;;;5024669;28;20265;-71
2023/04/20 11:02:23;;;;;;;13.50;4.28;;;21.80;1.00;;;;;;5024762;28;20174;-72
2023/04/20 11:04:48;;;;;;;9.05;3.72;;;22.20;1.00;;;;;;5022980;28;20217;-71
2023/04/20 11:07:14;;;;;;;7.18;3.55;;;22.50;1.00;;;;;;5025127;28;20631;-71
2023/04/20 11:09:41;;;;;;;9.90;3.30;;;22.50;1.00;;;;;;5022327;28;20193;-70
2023/04/20 11:12:10;;;;;;;6.55;3.05;;;22.50;1.00;;;;;;5026021;28;20166;-71
2023/04/20 11:14:50;;;;;;;6.00;3.25;;;22.70;1.00;;;;;;5022194;28;20209;-70
2023/04/20 11:17:16;;;;;;;10.40;3.80;;;22.70;1.00;;;;;;5025305;28;20173;-70
2023/04/20 11:19:42;;;;;;;7.72;3.42;;;;;;;;;;5022854;28;20265;-70
2023/04/20 11:22:08;;;;;;;7.35;3.22;;;;;;;;;;5025823;28;20509;-71
2023/04/20 11:24:34;;;;;;;9.82;3.53;;;22.40;1.00;;;;;;5021029;28;20238;-70
2023/04/20 11:27:01;;;;;;;10.63;3.40;;;22.30;1.00;;;;;;5025824;28;20181;-72
2023/04/20 11:29:32;;;;;;;5.43;3.00;;;21.40;1.00;;;;;;5021764;28;20178;-72
2023/04/20 11:31:58;;;;;;;10.85;3.22;;;22.30;1.00;;;;;;5020947;28;20219;-71
2023/04/20 11:34:24;;;;;;;6.68;2.88;;;22.40;1.00;;;;;;5022438;28;20173;-71
2023/04/20 11:36:50;;;;;;;12.13;3.88;;;;;;;;;;5024741;28;20190;-72
2023/04/20 11:39:24;;;;;;;7.55;2.70;;;22.60;1.00;;;;;;5023158;28;20178;-71
2023/04/20 11:41:51;;;;;;;6.75;2.83;;;22.70;1.00;;;;;;5007626;28;20188;-72
2023/04/20 11:44:19;;;;;;;14.13;2.90;;;23.10;1.00;;;;;;5023267;28;20213;-71
2023/04/20 11:46:46;;;;;;;9.15;3.08;;;23.10;1.00;;;;;;5023985;28;20209;-71
2023/04/20 11:49:12;;;;;;;6.22;3.45;;;;;;;;;;5024237;28;20186;-72
2023/04/20 11:51:37;;;;;;;6.90;3.38;;;23.80;1.00;;;;;;5022881;28;20659;-71
2023/04/20 11:54:03;;;;;;;17.08;3.70;;;23.70;1.00;;;;;;5025187;28;20182;-71
2023/04/20 11:56:29;;;;;;;6.88;3.38;;;22.60;1.00;;;;;;5022060;28;20174;-70
2023/04/20 11:58:55;;;;;;;10.65;3.10;;;23.20;1.00;;;;;;5025690;28;20641;-72
2023/04/20 12:01:21;;;;;;;6.53;2.97;;;25.50;1.00;;;;;;5025147;28;20183;-70
2023/04/20 12:03:47;;;;;;;10.20;3.22;;;;;;;;;;5029316;28;20182;-71
2023/04/20 12:06:12;;;;;;;9.57;2.90;;;23.70;1.00;;;;;;5024791;28;20588;-72
2023/04/20 12:08:38;;;;;;;7.80;3.05;;;24.50;1.00;;;;;;5029077;28;20260;-72
2023/04/20 12:11:04;;;;;;;7.47;3.25;;;25.00;1.00;;;;;;5027558;28;20700;-72
2023/04/20 12:13:30;;;;;;;6.88;3.42;;;25.10;1.00;;;;;;5029136;28;20181;-72
2023/04/20 12:15:55;;;;;;;7.60;3.30;;;24.40;1.00;;;;;;5027759;28;20189;-72
2023/04/20 12:18:22;;;;;;;9.40;3.17;;;24.50;1.00;;;;;;5026379;28;20786;-72
2023/04/20 12:20:49;;;;;;;6.40;2.60;;;;;;;;;;5028030;28;20311;-72
2023/04/20 12:23:14;;;;;;;11.73;2.97;;;24.40;1.00;;;;;;5025561;28;20255;-72
2023/04/20 12:25:41;;;;;;;6.15;2.95;;;24.70;1.00;;;;;;5028727;28;20740;-72
2023/04/20 12:28:07;;;;;;;5.50;2.90;;;24.80;1.00;;;;;;5024775;28;20170;-72
2023/04/20 12:30:34;;;;;;;6.63;2.95;;;24.70;1.00;;;;;;5028834;28;20235;-72
2023/04/20 12:33:01;;;;;;;5.43;2.80;;;24.80;1.00;;;;;;5024622;28;20244;-72
2023/04/20 12:35:27;;;;;;;8.07;2.85;;;24.50;1.00;;;;;;5023895;28;20190;-71
2023/04/20 12:37:52;;;;;;;9.23;2.92;;;23.90;1.00;;;;;;5025526;28;20236;-72
2023/04/20 12:40:18;;;;;;;9.68;3.25;;;23.70;1.00;;;;;;5027762;28;20696;-72
2023/04/20 12:42:44;;;;;;;6.13;3.00;;;23.90;1.00;;;;;;5026590;28;20178;-72
2023/04/20 12:45:10;;;;;;;15.68;3.38;;;24.20;1.00;;;;;;5026414;28;20217;-72
2023/04/20 12:47:35;;;;;;;7.55;3.35;;;24.60;1.00;;;;;;5026159;28;20186;-73
2023/04/20 12:50:02;;;;;;;14.23;3.78;;;24.50;1.00;;;;;;5024338;28;20206;-72
2023/04/20 12:52:28;;;;;;;16.60;3.50;;;25.50;1.00;;;;;;5027980;28;20182;-72